Time;durP1;ratioP1;P1;durP2;ratioP2;P2;SDS_P1;SDS_P2;PMS_P1;PMS_P2;Temp;Humidity;BMP_temperature;BMP_pressure;BME280_temperature;BME280_humidity;BME280_pressure;Samples;Min_cycle;Max_cycle;Signal;HPM_P1;HPM_P2
2022/09/17 00:01:01;;;;;;;5.40;5.20;;;;;;;;;;5044468;28;20592;-74
2022/09/17 00:03:28;;;;;;;5.20;5.00;;;;;;;;;;5045537;28;20472;-74
2022/09/17 00:06:02;;;;;;;5.40;5.20;;;;;;;;;;5051904;28;20085;-73
2022/09/17 00:08:28;;;;;;;5.15;4.95;;;;;;;;;;5049291;28;20062;-73
2022/09/17 00:10:54;;;;;;;5.22;5.03;;;;;;;;;;5042889;28;20048;-73
2022/09/17 00:13:19;;;;;;;5.75;5.50;;;;;;;;;;5047840;28;20040;-73
2022/09/17 00:15:46;;;;;;;5.55;5.35;;;;;;;;;;5049262;28;20505;-73
2022/09/17 00:18:13;;;;;;;5.40;5.20;;;;;;;;;;5046597;28;20084;-72
2022/09/17 00:20:44;;;;;;;5.75;5.47;;;;;;;;;;5045759;28;20340;-72
2022/09/17 00:23:10;;;;;;;5.60;5.40;;;;;;;;;;5050814;28;20557;-73
2022/09/17 00:25:41;;;;;;;5.60;5.40;;;;;;;;;;5047356;28;20125;-72
2022/09/17 00:28:07;;;;;;;5.60;5.40;;;;;;;;;;5051615;28;20044;-73
2022/09/17 00:30:34;;;;;;;5.50;5.30;;;;;;;;;;5065901;28;20045;-72
2022/09/17 00:32:59;;;;;;;5.05;4.85;;;;;;;;;;5045020;28;20025;-72
2022/09/17 00:35:26;;;;;;;5.38;5.18;;;;;;;;;;5046684;28;20099;-73
2022/09/17 00:37:52;;;;;;;5.60;5.40;;;;;;;;;;5048269;28;20041;-72
2022/09/17 00:40:19;;;;;;;5.15;4.95;;;;;;;;;;5044918;28;20618;-72
2022/09/17 00:42:45;;;;;;;4.93;4.72;;;;;;;;;;5048421;28;20476;-73
2022/09/17 00:45:12;;;;;;;5.20;5.00;;;;;;;;;;5045258;28;20025;-72
2022/09/17 00:47:42;;;;;;;5.32;5.13;;;;;;;;;;5047193;28;20460;-72
2022/09/17 00:50:12;;;;;;;5.40;5.20;;;;;;;;;;5042548;28;20534;-72
2022/09/17 00:52:46;;;;;;;5.25;5.05;;;;;;;;;;5046985;28;20056;-72
2022/09/17 00:55:22;;;;;;;5.15;4.95;;;;;;;;;;5047375;28;20028;-72
2022/09/17 00:57:52;;;;;;;5.20;5.00;;;;;;;;;;5045592;28;20045;-72
2022/09/17 01:00:18;;;;;;;5.25;5.05;;;;;;;;;;5041739;28;20033;-73
2022/09/17 01:02:44;;;;;;;5.47;5.28;;;;;;;;;;5045184;28;20068;-72
2022/09/17 01:05:11;;;;;;;5.50;5.30;;;;;;;;;;5043401;28;20075;-72
2022/09/17 01:07:45;;;;;;;5.40;5.20;;;;;;;;;;5043858;28;20232;-73
2022/09/17 01:10:44;;;;;;;5.30;5.10;;;;;;;;;;5049166;28;20327;-73
2022/09/17 01:13:40;;;;;;;5.97;5.68;;;;;;;;;;5046325;28;20399;-73
2022/09/17 01:16:23;;;;;;;5.53;5.32;;;;;;;;;;5050329;28;20036;-73
2022/09/17 01:19:17;;;;;;;5.47;5.28;;;;;;;;;;5048972;28;20288;-72
2022/09/17 01:21:43;;;;;;;5.97;5.68;;;;;;;;;;5046830;28;20037;-72
2022/09/17 01:24:35;;;;;;;5.82;5.53;;;;;;;;;;5040864;28;20052;-72
2022/09/17 01:27:24;;;;;;;5.40;5.20;;;;;;;;;;5053494;28;20036;-72
2022/09/17 01:29:55;;;;;;;5.55;5.35;;;;;;;;;;5048401;28;20048;-72
2022/09/17 01:32:37;;;;;;;5.03;4.82;;;;;;;;;;5043939;28;20052;-72
2022/09/17 01:35:22;;;;;;;5.50;5.30;;;;;;;;;;5048209;28;20029;-73
2022/09/17 01:37:59;;;;;;;5.40;5.20;;;;;;;;;;5064665;28;20365;-72
2022/09/17 01:40:49;;;;;;;5.90;5.60;;;;;;;;;;5068215;28;20106;-72
2022/09/17 01:43:45;;;;;;;5.88;5.57;;;;;;;;;;5050283;28;20063;-72
2022/09/17 01:46:28;;;;;;;5.57;5.38;;;;;;;;;;5049893;28;20070;-73
2022/09/17 01:48:59;;;;;;;5.80;5.50;;;;;;;;;;5047242;28;20095;-73
2022/09/17 01:51:29;;;;;;;5.70;5.50;;;;;;;;;;5044210;28;20033;-73
2022/09/17 01:54:00;;;;;;;6.00;5.70;;;;;;;;;;5058660;28;20510;-73
2022/09/17 01:56:32;;;;;;;5.55;5.35;;;;;;;;;;5055450;28;20029;-73
2022/09/17 01:59:06;;;;;;;5.75;5.47;;;;;;;;;;5053469;28;20055;-72
2022/09/17 02:01:32;;;;;;;5.30;5.10;;;;;;;;;;5054028;28;20040;-72
2022/09/17 02:04:10;;;;;;;5.18;4.97;;;;;;;;;;5053409;28;20041;-73
2022/09/17 02:06:39;;;;;;;5.90;5.60;;;;;;;;;;5056308;28;20024;-73
2022/09/17 02:09:19;;;;;;;5.18;4.97;;;;;;;;;;5050822;28;20062;-73
2022/09/17 02:11:50;;;;;;;5.50;5.30;;;;;;;;;;5053088;28;20029;-72
2022/09/17 02:14:22;;;;;;;5.40;5.20;;;;;;;;;;5059449;28;20126;-72
2022/09/17 02:16:53;;;;;;;5.80;5.50;;;;;;;;;;5054015;28;20037;-72
2022/09/17 02:19:23;;;;;;;5.53;5.32;;;;;;;;;;5053537;28;20056;-73
2022/09/17 02:22:02;;;;;;;5.80;5.50;;;;;;;;;;5054208;28;20082;-73
2022/09/17 02:24:27;;;;;;;5.22;5.03;;;;;;;;;;5054819;28;20037;-73
2022/09/17 02:27:21;;;;;;;5.80;5.50;;;;;;;;;;5056926;28;20381;-73
2022/09/17 02:29:47;;;;;;;5.43;5.22;;;;;;;;;;5057207;28;20044;-72
2022/09/17 02:32:13;;;;;;;5.10;4.90;;;;;;;;;;5057092;28;20153;-72
2022/09/17 02:34:39;;;;;;;5.60;5.40;;;;;;;;;;5054841;28;20559;-72
2022/09/17 02:37:05;;;;;;;5.45;5.25;;;;;;;;;;5055771;28;20039;-72
2022/09/17 02:39:31;;;;;;;5.68;5.45;;;;;;;;;;5055901;28;20480;-72
2022/09/17 02:42:08;;;;;;;5.80;5.50;;;;;;;;;;5053032;28;20439;-72
2022/09/17 02:44:54;;;;;;;6.18;5.88;;;;;;;;;;5048204;28;20021;-72
2022/09/17 02:47:40;;;;;;;5.90;5.60;;;;;;;;;;5056361;28;20088;-73
2022/09/17 02:50:34;;;;;;;5.50;5.30;;;;;;;;;;5052956;28;20068;-73
2022/09/17 02:53:09;;;;;;;5.85;5.55;;;;;;;;;;5048171;28;20033;-73
2022/09/17 02:55:56;;;;;;;5.40;5.20;;;;;;;;;;5060449;28;20399;-73
2022/09/17 02:58:36;;;;;;;5.40;5.20;;;;;;;;;;5058843;28;20064;-73
2022/09/17 03:01:16;;;;;;;5.40;5.20;;;;;;;;;;5051581;28;20488;-73
2022/09/17 03:03:44;;;;;;;5.50;5.30;;;;;;;;;;5057759;28;20075;-72
2022/09/17 03:06:10;;;;;;;5.28;5.07;;;;;;;;;;5053545;28;20041;-73
2022/09/17 03:08:40;;;;;;;5.30;5.10;;;;;;;;;;5051681;28;20216;-72
2022/09/17 03:11:07;;;;;;;;;;;;;;;;;;5047059;28;20025;-72
2022/09/17 03:13:35;;;;;;;5.30;5.10;;;;;;;;;;5049066;28;19943;-72
2022/09/17 03:16:04;;;;;;;5.40;5.20;;;;;;;;;;5050443;28;20048;-73
2022/09/17 03:18:29;;;;;;;5.50;5.30;;;;;;;;;;5048394;28;20764;-73
2022/09/17 03:20:55;;;;;;;5.30;5.10;;;;;;;;;;5052263;28;20025;-73
2022/09/17 03:23:20;;;;;;;5.07;4.88;;;;;;;;;;5053704;28;20041;-73
2022/09/17 03:25:48;;;;;;;5.30;5.10;;;;;;;;;;5049309;28;20040;-73
2022/09/17 03:28:14;;;;;;;5.45;5.25;;;;;;;;;;5049430;28;20036;-73
2022/09/17 03:30:42;;;;;;;5.20;5.00;;;;;;;;;;5054583;28;20033;-73
2022/09/17 03:33:08;;;;;;;5.18;4.97;;;;;;;;;;5054112;28;20044;-72
2022/09/17 03:35:33;;;;;;;5.40;5.20;;;;;;;;;;5052141;28;20526;-73
2022/09/17 03:37:59;;;;;;;5.45;5.25;;;;;;;;;;5053531;28;20032;-73
2022/09/17 03:40:24;;;;;;;5.05;4.85;;;;;;;;;;5068489;22;20029;-71
2022/09/17 03:42:50;;;;;;;5.32;5.13;;;;;;;;;;5040071;28;20041;-69
2022/09/17 03:45:15;;;;;;;5.10;4.90;;;;;;;;;;5038755;28;20582;-70
2022/09/17 03:47:41;;;;;;;5.40;5.20;;;;;;;;;;5036061;28;20397;-68
2022/09/17 03:50:07;;;;;;;5.38;5.18;;;;;;;;;;5034942;28;20045;-73
2022/09/17 03:52:33;;;;;;;5.45;5.25;;;;;;;;;;5035293;28;20648;-69
2022/09/17 03:54:58;;;;;;;5.35;5.15;;;;;;;;;;5034510;28;20056;-70
2022/09/17 03:57:24;;;;;;;5.07;4.88;;;;;;;;;;5034332;28;20059;-72
2022/09/17 03:59:50;;;;;;;5.47;5.28;;;;;;;;;;5035806;28;20102;-69
2022/09/17 04:02:15;;;;;;;5.30;5.10;;;;;;;;;;5034671;28;20024;-71
2022/09/17 04:04:41;;;;;;;4.82;4.63;;;;;;;;;;5033825;28;20037;-72
2022/09/17 04:07:06;;;;;;;4.97;4.78;;;;;;;;;;5040275;28;20033;-70
2022/09/17 04:09:32;;;;;;;4.80;4.60;;;;;;;;;;5038589;28;20132;-70
2022/09/17 04:11:58;;;;;;;5.20;5.00;;;;;;;;;;5038846;28;20128;-69
2022/09/17 04:14:23;;;;;;;4.90;4.70;;;;;;;;;;5033179;28;20037;-69
2022/09/17 04:16:49;;;;;;;4.75;4.55;;;;;;;;;;5040805;28;20033;-70
2022/09/17 04:19:14;;;;;;;5.10;4.90;;;;;;;;;;5039965;28;20037;-68
2022/09/17 04:21:40;;;;;;;4.80;4.60;;;;;;;;;;5038431;28;20029;-70
2022/09/17 04:24:06;;;;;;;4.97;4.78;;;;;;;;;;5035184;28;20038;-69
2022/09/17 04:26:31;;;;;;;5.15;4.95;;;;;;;;;;5035365;28;20479;-71
2022/09/17 04:28:57;;;;;;;5.00;4.80;;;;;;;;;;5037416;28;20048;-70
2022/09/17 04:31:23;;;;;;;5.25;5.05;;;;;;;;;;5036199;28;20051;-70
2022/09/17 04:33:50;;;;;;;4.68;4.47;;;;;;;;;;5037173;28;20042;-68
2022/09/17 04:36:16;;;;;;;4.90;4.70;;;;;;;;;;5018152;28;20083;-70
2022/09/17 04:38:41;;;;;;;5.00;4.80;;;;;;;;;;5038044;28;20037;-70
2022/09/17 04:41:07;;;;;;;5.10;4.90;;;;;;;;;;5035062;28;20029;-70
2022/09/17 04:43:34;;;;;;;5.00;4.80;;;;;;;;;;5038675;28;20148;-70
2022/09/17 04:46:00;;;;;;;4.65;4.45;;;;;;;;;;5034243;28;20508;-71
2022/09/17 04:48:25;;;;;;;4.75;4.55;;;;;;;;;;5028470;28;20481;-70
2022/09/17 04:50:51;;;;;;;4.90;4.70;;;;;;;;;;5033943;28;20513;-70
2022/09/17 04:53:17;;;;;;;5.07;4.88;;;;;;;;;;5030617;28;20045;-73
2022/09/17 04:55:43;;;;;;;4.53;4.32;;;;;;;;;;5029185;28;20130;-70
2022/09/17 04:58:09;;;;;;;5.13;4.93;;;;;;;;;;5036062;28;20042;-70
2022/09/17 05:00:36;;;;;;;5.03;4.82;;;;;;;;;;5037887;28;20033;-71
2022/09/17 05:03:01;;;;;;;5.30;5.10;;;;;;;;;;5030716;28;20063;-70
2022/09/17 05:05:27;;;;;;;5.28;5.07;;;;;;;;;;5036036;28;20053;-70
2022/09/17 05:07:52;;;;;;;5.18;4.97;;;;;;;;;;5038481;28;20043;-73
2022/09/17 05:10:20;;;;;;;5.25;5.05;;;;;;;;;;5040795;28;20044;-71
2022/09/17 05:12:49;;;;;;;5.35;5.15;;;;;;;;;;5028436;28;20030;-70
2022/09/17 05:15:15;;;;;;;5.40;5.20;;;;;;;;;;5038904;28;20037;-70
2022/09/17 05:17:40;;;;;;;5.25;5.05;;;;;;;;;;5030172;28;20485;-70
2022/09/17 05:20:06;;;;;;;5.22;5.03;;;;;;;;;;5034468;28;20079;-70
2022/09/17 05:22:32;;;;;;;5.05;4.85;;;;;;;;;;5032012;28;20520;-70
2022/09/17 05:24:57;;;;;;;4.80;4.60;;;;;;;;;;5037300;28;20071;-70
2022/09/17 05:27:23;;;;;;;5.10;4.90;;;;;;;;;;5034755;28;20045;-70
2022/09/17 05:29:48;;;;;;;5.40;5.20;;;;;;;;;;5034119;28;20082;-70
2022/09/17 05:32:14;;;;;;;5.15;4.95;;;;;;;;;;5034821;28;20079;-72
2022/09/17 05:34:40;;;;;;;5.30;5.10;;;;;;;;;;5033211;28;20439;-72
2022/09/17 05:37:08;;;;;;;5.50;5.30;;;;;;;;;;5032684;28;20107;-72
2022/09/17 05:39:34;;;;;;;5.55;5.35;;;;;;;;;;5036129;28;20560;-72
2022/09/17 05:42:00;;;;;;;5.47;5.28;;;;;;;;;;5027348;28;20112;-72
2022/09/17 05:44:25;;;;;;;5.45;5.25;;;;;;;;;;5029575;28;20037;-72
2022/09/17 05:46:52;;;;;;;5.28;5.07;;;;;;;;;;5031481;28;20061;-71
2022/09/17 05:49:17;;;;;;;5.20;5.00;;;;;;;;;;5034274;28;20149;-70
2022/09/17 05:51:43;;;;;;;5.15;4.95;;;;;;;;;;5029741;28;20132;-72
2022/09/17 05:54:09;;;;;;;5.50;5.30;;;;;;;;;;5037777;28;20647;-70
2022/09/17 05:56:34;;;;;;;5.03;4.82;;;;;;;;;;5030773;28;20041;-72
2022/09/17 05:59:00;;;;;;;5.30;5.10;;;;;;;;;;5036585;28;20042;-72
2022/09/17 06:01:26;;;;;;;5.47;5.28;;;;;;;;;;5031704;28;20100;-72
2022/09/17 06:03:52;;;;;;;5.55;5.35;;;;;;;;;;5033120;28;20103;-72
2022/09/17 06:06:18;;;;;;;5.60;5.40;;;;;;;;;;5035174;28;20041;-72
2022/09/17 06:08:44;;;;;;;5.40;5.20;;;;;;;;;;5026675;28;20461;-72
2022/09/17 06:11:10;;;;;;;5.60;5.40;;;;;;;;;;5034734;28;20044;-72
2022/09/17 06:13:35;;;;;;;5.82;5.53;;;;;;;;;;5038628;28;20124;-72
2022/09/17 06:16:02;;;;;;;5.60;5.40;;;;;;;;;;5030559;28;20480;-70
2022/09/17 06:18:28;;;;;;;5.38;5.18;;;;;;;;;;5034758;28;20065;-70
2022/09/17 06:21:04;;;;;;;5.88;5.57;;;;;;;;;;5034409;28;20053;-70
2022/09/17 06:23:36;;;;;;;6.00;5.70;;;;;;;;;;5025520;28;20041;-70
2022/09/17 06:26:04;;;;;;;5.85;5.55;;;;;;;;;;5033623;28;20519;-71
2022/09/17 06:28:30;;;;;;;5.60;5.40;;;;;;;;;;5036653;28;20029;-70
2022/09/17 06:31:01;;;;;;;5.82;5.53;;;;;;;;;;5037869;28;20029;-70
2022/09/17 06:33:26;;;;;;;6.00;5.70;;;;;;;;;;5044231;28;20573;-70
2022/09/17 06:36:04;;;;;;;6.30;6.00;;;;;;;;;;5040940;28;20120;-70
2022/09/17 06:38:31;;;;;;;5.72;5.43;;;;;;;;;;5031640;28;20029;-70
2022/09/17 06:40:58;;;;;;;6.07;5.78;;;;;;;;;;5032578;28;20021;-70
2022/09/17 06:43:24;;;;;;;5.55;5.35;;;;;;;;;;5043691;28;20419;-72
2022/09/17 06:45:54;;;;;;;5.50;5.30;;;;;;;;;;5035196;28;20464;-70
2022/09/17 06:48:20;;;;;;;5.60;5.40;;;;;;;;;;5034193;28;20717;-72
2022/09/17 06:50:47;;;;;;;5.40;5.20;;;;;;;;;;5034593;28;20376;-70
2022/09/17 06:53:13;;;;;;;5.40;5.20;;;;;;;;;;5040241;28;20037;-70
2022/09/17 06:55:38;;;;;;;5.93;5.63;;;;;;;;;;5032373;28;20095;-72
2022/09/17 06:58:04;;;;;;;5.95;5.65;;;;;;;;;;5045739;28;20021;-72
2022/09/17 07:00:30;;;;;;;5.30;5.10;;;;;;;;;;5040514;28;20076;-70
2022/09/17 07:02:59;;;;;;;5.57;5.38;;;;;;;;;;5039457;28;20029;-72
2022/09/17 07:05:26;;;;;;;;;;;;;;;;;;5035601;28;20083;-72
2022/09/17 07:07:52;;;;;;;5.65;5.45;;;;;;;;;;5041274;28;20085;-72
2022/09/17 07:10:17;;;;;;;5.50;5.30;;;;;;;;;;5034236;28;20670;-71
2022/09/17 07:12:43;;;;;;;5.97;5.68;;;;;;;;;;5032495;28;20035;-72
2022/09/17 07:15:10;;;;;;;6.10;5.80;;;;;;;;;;5039218;28;20057;-72
2022/09/17 07:17:38;;;;;;;6.03;5.72;;;;;;;;;;5038917;28;20374;-69
2022/09/17 07:20:05;;;;;;;6.20;5.90;;;;;;;;;;5042631;28;20163;-70
2022/09/17 07:22:31;;;;;;;6.28;5.97;;;;;;;;;;5035502;28;20052;-70
2022/09/17 07:24:56;;;;;;;5.93;5.63;;;;;;;;;;5029652;28;20119;-70
2022/09/17 07:27:22;;;;;;;5.90;5.60;;;;;;;;;;5035496;28;20091;-70
2022/09/17 07:29:47;;;;;;;6.00;5.70;;;;;;;;;;5032538;28;20552;-70
2022/09/17 07:32:13;;;;;;;6.15;5.85;;;;;;;;;;5032181;28;20559;-70
2022/09/17 07:34:38;;;;;;;5.82;5.53;;;;;;;;;;5031109;28;20140;-70
2022/09/17 07:37:04;;;;;;;6.00;5.70;;;;;;;;;;5030828;28;20029;-70
2022/09/17 07:39:30;;;;;;;5.75;5.47;;;;;;;;;;5034266;28;20499;-70
2022/09/17 07:41:55;;;;;;;5.53;5.32;;;;;;;;;;5039556;28;20050;-70
2022/09/17 07:44:21;;;;;;;6.20;5.90;;;;;;;;;;5040848;28;20474;-70
2022/09/17 07:46:47;;;;;;;5.68;5.43;;;;;;;;;;5026352;28;20485;-70
2022/09/17 07:49:12;;;;;;;6.30;6.00;;;;;;;;;;5035276;28;20116;-70
2022/09/17 07:51:38;;;;;;;5.93;5.63;;;;;;;;;;5034031;28;20395;-70
2022/09/17 07:54:05;;;;;;;5.80;5.50;;;;;;;;;;5040493;28;20040;-71
2022/09/17 07:56:30;;;;;;;5.60;5.40;;;;;;;;;;5039935;28;20090;-71
2022/09/17 07:58:56;;;;;;;5.80;5.50;;;;;;;;;;5041544;28;20104;-70
2022/09/17 08:01:22;;;;;;;5.90;5.60;;;;;;;;;;5029022;28;20033;-72
2022/09/17 08:03:49;;;;;;;5.63;5.40;;;;;;;;;;5030460;28;20021;-71
2022/09/17 08:06:18;;;;;;;5.57;5.38;;;;;;;;;;5042322;28;20369;-71
2022/09/17 08:08:44;;;;;;;5.60;5.40;;;;;;;;;;5039539;28;20112;-71
2022/09/17 08:11:13;;;;;;;5.57;5.38;;;;;;;;;;5031033;28;20159;-71
2022/09/17 08:13:39;;;;;;;5.82;5.53;;;;;;;;;;5040826;28;20123;-70
2022/09/17 08:16:14;;;;;;;6.07;5.78;;;;;;;;;;5039099;28;20043;-72
2022/09/17 08:18:44;;;;;;;5.63;5.43;;;;;;;;;;5039113;28;20056;-70
2022/09/17 08:21:15;;;;;;;5.90;5.60;;;;;;;;;;5039902;28;20051;-71
2022/09/17 08:23:42;;;;;;;5.80;5.50;;;;;;;;;;5042113;28;20037;-70
2022/09/17 08:26:15;;;;;;;5.88;5.57;;;;;;;;;;5031032;28;20037;-70
2022/09/17 08:28:44;;;;;;;5.53;5.32;;;;;;;;;;5035414;28;20416;-70
2022/09/17 08:31:10;;;;;;;;;;;;;;;;;;5034362;28;20057;-71
2022/09/17 08:33:37;;;;;;;5.60;5.40;;;;;;;;;;5041983;28;20244;-71
2022/09/17 08:36:05;;;;;;;5.47;5.28;;;;;;;;;;5036945;28;20037;-70
2022/09/17 08:38:32;;;;;;;5.90;5.60;;;;;;;;;;5011674;28;20033;-71
2022/09/17 08:41:10;;;;;;;5.90;5.60;;;;;;;;;;5042979;28;20500;-71
2022/09/17 08:44:14;;;;;;;5.70;5.47;;;;;;;;;;5035550;28;20039;-71
2022/09/17 08:46:53;;;;;;;5.20;5.00;;;;;;;;;;5009652;28;20061;-71
2022/09/17 08:49:31;;;;;;;5.13;4.93;;;;;;;;;;5033589;28;20571;-71
2022/09/17 08:52:22;;;;;;;5.30;5.10;;;;;;;;;;5036196;28;20039;-71
2022/09/17 08:55:18;;;;;;;5.18;4.97;;;;;;;;;;5036028;28;20040;-71
2022/09/17 08:58:04;;;;;;;5.20;5.00;;;;;;;;;;5036782;28;20040;-70
2022/09/17 09:00:42;;;;;;;5.20;5.00;;;;;;;;;;5027794;28;20028;-70
2022/09/17 09:03:16;;;;;;;5.07;4.88;;;;;;;;;;5027525;28;20037;-70
2022/09/17 09:05:48;;;;;;;5.47;5.28;;;;;;;;;;5028457;28;20033;-71
2022/09/17 09:08:25;;;;;;;5.15;4.95;;;;;;;;;;5039982;28;20051;-70
2022/09/17 09:10:55;;;;;;;5.55;5.35;;;;;;;;;;5039293;28;20479;-70
2022/09/17 09:13:25;;;;;;;5.15;4.95;;;;;;;;;;5024359;28;20103;-70
2022/09/17 09:15:58;;;;;;;5.90;5.60;;;;;;;;;;5023584;28;20043;-71
2022/09/17 09:18:32;;;;;;;6.20;5.90;;;;;;;;;;5022767;28;20475;-71
2022/09/17 09:21:07;;;;;;;6.18;5.88;;;;;;;;;;5035382;28;20499;-70
2022/09/17 09:23:39;;;;;;;6.13;5.82;;;;;;;;;;5034325;28;20037;-72
2022/09/17 09:26:14;;;;;;;6.03;5.72;;;;;;;;;;5033848;28;20045;-71
2022/09/17 09:28:39;;;;;;;5.85;5.55;;;;;;;;;;5022196;28;20649;-71
2022/09/17 09:31:14;;;;;;;6.00;5.70;;;;;;;;;;5033330;28;20084;-71
2022/09/17 09:33:42;;;;;;;6.50;6.20;;;;;;;;;;5042493;28;20044;-70
2022/09/17 09:36:15;;;;;;;5.47;5.28;;;;;;;;;;5037770;28;20106;-71
2022/09/17 09:39:00;;;;;;;5.60;5.40;;;;;;;;;;5035362;28;20041;-71
2022/09/17 09:41:59;;;;;;;6.30;6.00;;;;;;;;;;5020636;28;20025;-71
2022/09/17 09:44:25;;;;;;;6.10;5.80;;;;;;;;;;5040614;28;20028;-71
2022/09/17 09:47:06;;;;;;;5.50;5.30;;;;;;;;;;5000888;28;20045;-71
2022/09/17 09:49:52;;;;;;;5.38;5.18;;;;;;;;;;5031255;28;20040;-71
2022/09/17 09:52:45;;;;;;;5.40;5.20;;;;;;;;;;5035263;28;20034;-70
2022/09/17 09:55:30;;;;;;;6.10;5.80;;;;;;;;;;5030879;28;20192;-72
2022/09/17 09:58:10;;;;;;;5.90;5.60;;;;;;;;;;5039587;28;20526;-71
2022/09/17 10:00:38;;;;;;;6.10;5.80;;;;;;;;;;5034190;28;20477;-71
2022/09/17 10:03:15;;;;;;;5.97;5.68;;;;;;;;;;5040623;28;20130;-71
2022/09/17 10:05:52;;;;;;;5.57;5.38;;;;;;;;;;5026495;28;20036;-71
2022/09/17 10:08:18;;;;;;;6.10;5.80;;;;;;;;;;5028597;28;20038;-71
2022/09/17 10:10:54;;;;;;;6.20;5.90;;;;;;;;;;5024381;28;20033;-71
2022/09/17 10:13:20;;;;;;;6.20;5.90;;;;;;;;;;5019833;28;20084;-71
2022/09/17 10:15:46;;;;;;;6.20;5.90;;;;;;;;;;5020402;28;20101;-71
2022/09/17 10:18:20;;;;;;;6.18;5.88;;;;;;;;;;5009697;28;20037;-71
2022/09/17 10:20:59;;;;;;;6.00;5.70;;;;;;;;;;5030480;28;20034;-71
2022/09/17 10:23:32;;;;;;;5.95;5.65;;;;;;;;;;5028703;28;20041;-71
2022/09/17 10:25:58;;;;;;;5.95;5.65;;;;;;;;;;5028668;28;20029;-72
2022/09/17 10:28:36;;;;;;;6.00;5.70;;;;;;;;;;5028864;28;20041;-70
2022/09/17 10:31:07;;;;;;;6.18;5.88;;;;;;;;;;5027711;28;20030;-71
2022/09/17 10:33:33;;;;;;;6.35;6.05;;;;;;;;;;5031804;28;20037;-72
2022/09/17 10:36:05;;;;;;;6.20;5.90;;;;;;;;;;5028043;28;20101;-72
2022/09/17 10:38:36;;;;;;;6.82;6.53;;;;;;;;;;5031156;28;20048;-74
2022/09/17 10:41:20;;;;;;;6.70;6.40;;;;;;;;;;5027120;28;21136;-72
2022/09/17 10:43:47;;;;;;;6.18;5.88;;;;;;;;;;5032982;28;20038;-71
2022/09/17 10:46:32;;;;;;;6.00;5.70;;;;;;;;;;5024729;28;20539;-72
2022/09/17 10:48:58;;;;;;;6.55;6.25;;;;;;;;;;5031193;28;20033;-71
2022/09/17 10:51:24;;;;;;;5.80;5.50;;;;;;;;;;5028075;28;20497;-71
2022/09/17 10:54:12;;;;;;;5.30;5.10;;;;;;;;;;5029732;28;20048;-71
2022/09/17 10:56:44;;;;;;;5.90;5.60;;;;;;;;;;5032285;28;20032;-71
2022/09/17 10:59:16;;;;;;;6.65;6.35;;;;;;;;;;5029532;28;20439;-71
2022/09/17 11:02:03;;;;;;;5.80;5.50;;;;;;;;;;5030968;28;20033;-73
2022/09/17 11:04:40;;;;;;;5.63;5.40;;;;;;;;;;5038144;28;20025;-71
2022/09/17 11:07:30;;;;;;;5.35;5.15;;;;;;;;;;5035804;28;20595;-73
2022/09/17 11:09:55;;;;;;;6.00;5.70;;;;;;;;;;5037567;28;20280;-71
2022/09/17 11:12:54;;;;;;;5.90;5.60;;;;;;;;;;5039265;28;20480;-71
2022/09/17 11:15:28;;;;;;;;;;;;;;;;;;5036070;28;20408;-71
2022/09/17 11:18:13;;;;;;;6.22;5.93;;;;;;;;;;5033162;28;19920;-73
2022/09/17 11:20:57;;;;;;;6.63;6.32;;;;;;;;;;5039880;28;20032;-71
2022/09/17 11:23:26;;;;;;;6.00;5.70;;;;;;;;;;5032584;28;20044;-72
2022/09/17 11:25:57;;;;;;;6.20;5.90;;;;;;;;;;5018004;28;20072;-70
2022/09/17 11:28:41;;;;;;;6.70;6.40;;;;;;;;;;5042154;28;20379;-71
2022/09/17 11:31:06;;;;;;;5.90;5.60;;;;;;;;;;4995502;28;20546;-71
2022/09/17 11:33:49;;;;;;;6.03;5.72;;;;;;;;;;5032832;28;20682;-71
2022/09/17 11:36:22;;;;;;;6.10;5.80;;;;;;;;;;5041689;28;20090;-71
2022/09/17 11:38:52;;;;;;;6.35;6.05;;;;;;;;;;5028252;28;20112;-72
2022/09/17 11:41:33;;;;;;;6.32;6.03;;;;;;;;;;5026957;28;20033;-72
2022/09/17 11:44:23;;;;;;;6.25;5.95;;;;;;;;;;5030531;28;20029;-71
2022/09/17 11:47:11;;;;;;;5.55;5.35;;;;;;;;;;5031053;28;20078;-71
2022/09/17 11:49:46;;;;;;;6.22;5.93;;;;;;;;;;5010750;28;20753;-70
2022/09/17 11:52:25;;;;;;;6.57;6.28;;;;;;;;;;5035185;28;20048;-71
2022/09/17 11:55:30;;;;;;;5.95;5.65;;;;;;;;;;5030120;28;20785;-71
2022/09/17 11:58:02;;;;;;;5.75;5.45;;;;;;;;;;5032743;28;20041;-70
2022/09/17 12:00:30;;;;;;;5.80;5.50;;;;;;;;;;5033124;28;20115;-71
2022/09/17 12:03:09;;;;;;;5.55;5.35;;;;;;;;;;5033382;28;20056;-71
2022/09/17 12:05:47;;;;;;;6.10;5.80;;;;;;;;;;5033096;28;20042;-70
2022/09/17 12:08:28;;;;;;;6.20;5.90;;;;;;;;;;5037429;28;20067;-70
2022/09/17 12:11:11;;;;;;;5.97;5.68;;;;;;;;;;5035830;28;20044;-70
2022/09/17 12:13:51;;;;;;;5.65;5.40;;;;;;;;;;5022330;28;20037;-71
2022/09/17 12:16:37;;;;;;;5.60;5.40;;;;;;;;;;5033730;28;20033;-70
2022/09/17 12:19:09;;;;;;;5.60;5.40;;;;;;;;;;5032714;28;20038;-72
2022/09/17 12:21:37;;;;;;;5.13;4.93;;;;;;;;;;5020823;28;20038;-72
2022/09/17 12:24:27;;;;;;;5.57;5.37;;;;;;;;;;5030635;28;20737;-70
2022/09/17 12:27:04;;;;;;;5.90;5.60;;;;;;;;;;5035319;28;20463;-71
2022/09/17 12:29:36;;;;;;;6.03;5.72;;;;;;;;;;5024844;28;20045;-70
2022/09/17 12:32:27;;;;;;;6.53;6.10;;;;;;;;;;5020876;28;20137;-70
2022/09/17 12:35:12;;;;;;;6.07;5.78;;;;;;;;;;5036212;28;20045;-70
2022/09/17 12:37:53;;;;;;;5.90;5.60;;;;;;;;;;5034877;28;20033;-70
2022/09/17 12:40:27;;;;;;;6.35;6.05;;;;;;;;;;5034611;28;20045;-70
2022/09/17 12:43:08;;;;;;;6.20;5.90;;;;;;;;;;5024543;28;20029;-70
2022/09/17 12:45:59;;;;;;;5.72;5.45;;;;;;;;;;5028981;28;20032;-70
2022/09/17 12:49:06;;;;;;;6.07;5.78;;;;;;;;;;5038345;28;20041;-70
2022/09/17 12:51:58;;;;;;;6.50;6.20;;;;;;;;;;5029894;28;20080;-70
2022/09/17 12:54:36;;;;;;;6.70;6.40;;;;;;;;;;5025708;28;20080;-71
2022/09/17 12:57:29;;;;;;;5.90;5.60;;;;;;;;;;5028464;28;20039;-71
2022/09/17 13:00:02;;;;;;;5.65;5.43;;;;;;;;;;5027676;28;20039;-70
2022/09/17 13:02:34;;;;;;;5.90;5.60;;;;;;;;;;5034152;28;20045;-71
2022/09/17 13:05:33;;;;;;;5.90;5.60;;;;;;;;;;5031750;28;20032;-70
2022/09/17 13:08:35;;;;;;;6.10;5.80;;;;;;;;;;5034871;28;20508;-70
2022/09/17 13:11:25;;;;;;;5.82;5.53;;;;;;;;;;5027195;28;20113;-71
2022/09/17 13:13:57;;;;;;;6.15;5.85;;;;;;;;;;5032172;28;20037;-71
2022/09/17 13:16:40;;;;;;;6.10;5.80;;;;;;;;;;5011500;28;20205;-70
2022/09/17 13:19:24;;;;;;;6.40;6.10;;;;;;;;;;5038154;28;20045;-70
2022/09/17 13:21:59;;;;;;;6.05;5.75;;;;;;;;;;5033988;28;20072;-70
2022/09/17 13:24:28;;;;;;;5.95;5.65;;;;;;;;;;5026043;28;20600;-70
2022/09/17 13:26:57;;;;;;;5.50;5.30;;;;;;;;;;5029708;28;20102;-73
2022/09/17 13:29:43;;;;;;;5.50;5.30;;;;;;;;;;5035168;28;20041;-70
2022/09/17 13:32:31;;;;;;;6.18;5.88;;;;;;;;;;5032237;28;20036;-73
2022/09/17 13:35:17;;;;;;;5.97;5.68;;;;;;;;;;5026624;28;20037;-73
2022/09/17 13:37:55;;;;;;;5.63;5.38;;;;;;;;;;5021310;28;20045;-73
2022/09/17 13:40:24;;;;;;;5.70;5.45;;;;;;;;;;5022619;28;20040;-73
2022/09/17 13:42:57;;;;;;;6.15;5.85;;;;;;;;;;5019341;28;20067;-70
2022/09/17 13:45:24;;;;;;;5.97;5.68;;;;;;;;;;5032083;28;20071;-73
2022/09/17 13:47:59;;;;;;;6.10;5.80;;;;;;;;;;5026270;28;20045;-70
2022/09/17 13:50:26;;;;;;;6.18;5.88;;;;;;;;;;5032914;28;20075;-70
2022/09/17 13:52:54;;;;;;;6.03;5.72;;;;;;;;;;5018578;28;20556;-70
2022/09/17 13:55:38;;;;;;;6.32;6.03;;;;;;;;;;5035213;28;20086;-71
2022/09/17 13:58:22;;;;;;;6.03;5.72;;;;;;;;;;5027853;28;20030;-71
2022/09/17 14:00:58;;;;;;;6.55;6.25;;;;;;;;;;5038491;28;20036;-72
2022/09/17 14:03:30;;;;;;;6.50;6.20;;;;;;;;;;5035141;28;20041;-72
2022/09/17 14:06:05;;;;;;;6.15;5.85;;;;;;;;;;5031240;28;20040;-70
2022/09/17 14:08:55;;;;;;;6.40;6.10;;;;;;;;;;5034442;28;20557;-70
2022/09/17 14:11:21;;;;;;;6.13;5.82;;;;;;;;;;5030760;28;20056;-72
2022/09/17 14:13:51;;;;;;;5.82;5.53;;;;;;;;;;5034491;28;20091;-70
2022/09/17 14:16:34;;;;;;;5.82;5.53;;;;;;;;;;5028440;28;20484;-70
2022/09/17 14:19:14;;;;;;;6.20;5.90;;;;;;;;;;5030705;28;20112;-71
2022/09/17 14:22:00;;;;;;;6.05;5.75;;;;;;;;;;5031357;28;21834;-71
2022/09/17 14:24:26;;;;;;;6.38;6.07;;;;;;;;;;5030241;28;20040;-72
2022/09/17 14:27:34;;;;;;;5.80;5.50;;;;;;;;;;5034537;28;20041;-71
2022/09/17 14:30:11;;;;;;;6.57;6.27;;;;;;;;;;4985547;28;20056;-70
2022/09/17 14:33:29;;;;;;;6.65;6.35;;;;;;;;;;5030510;28;20052;-72
2022/09/17 14:36:06;;;;;;;6.60;6.30;;;;;;;;;;4993209;28;20038;-72
2022/09/17 14:38:43;;;;;;;6.78;6.47;;;;;;;;;;4986072;28;20502;-71
2022/09/17 14:41:11;;;;;;;6.25;5.95;;;;;;;;;;4987427;28;20046;-71
2022/09/17 14:43:47;;;;;;;5.80;5.50;;;;;;;;;;4992807;28;20050;-72
2022/09/17 14:46:21;;;;;;;6.20;5.90;;;;;;;;;;4993812;28;20100;-70
2022/09/17 14:48:47;;;;;;;6.57;6.28;;;;;;;;;;4982793;28;20378;-74
2022/09/17 14:51:16;;;;;;;6.07;5.78;;;;;;;;;;4984960;28;20671;-74
2022/09/17 14:53:41;;;;;;;6.55;6.25;;;;;;;;;;4989202;28;20096;-74
2022/09/17 14:56:11;;;;;;;6.32;6.03;;;;;;;;;;4986863;28;20043;-72
2022/09/17 14:58:40;;;;;;;6.40;6.10;;;;;;;;;;4995364;28;20050;-70
2022/09/17 15:01:21;;;;;;;6.45;6.15;;;;;;;;;;4987147;28;20042;-71
2022/09/17 15:03:47;;;;;;;6.57;6.28;;;;;;;;;;4996275;28;20029;-70
2022/09/17 15:06:22;;;;;;;6.38;6.07;;;;;;;;;;4986865;28;20112;-70
2022/09/17 15:08:48;;;;;;;6.28;5.97;;;;;;;;;;4995684;28;20667;-71
2022/09/17 15:11:14;;;;;;;6.10;5.80;;;;;;;;;;5008273;28;20041;-71
2022/09/17 15:13:50;;;;;;;6.20;5.90;;;;;;;;;;5037345;28;20507;-71
2022/09/17 15:16:25;;;;;;;6.38;6.07;;;;;;;;;;5033952;28;20640;-71